Latest Coastal Weather Observations for Devonport Airport

IDV60701

Issued at 1:31 am EST Monday 25 May 2015 (issued every 10 minutes, with the page automatically refreshed every 10 minutes)

About coastal observations | Map of coastal stations | Coastal observations for VIC | Marine services | Other Formats
Station Details ID: 091126 Name: DEVONPORT AIRPORT Lat: -41.17 Lon: 146.43 Height: 8.0 m
Data from the previous 72 hours. | See also: Recent months at Devonport Airport
Date/Time
EST
Temp

°C
Wind Pressure Rain
since 9am
mm
Weather Cloud Vis
km
Sea
Height
m
Swell
Dir
 
Speed
knots
Gust
knots
hPa Trend Height
m
Period
s
Dir
25/01:30am 3.1 SSE 6 8 1029.6 - 0.0 - - 4 - - - -
25/01:25am 3.1 S 7 8 1029.6 - 0.0 - - 6 - - - -
25/01:11am 2.9 S 7 8 1029.7 - 0.0 - Partly cloudy 7 - - - -
25/01:02am 2.9 S 6 7 1029.7 - 0.0 - Partly cloudy 7 - - - -
25/01:00am 2.8 S 7 8 1029.7 - 0.0 - Partly cloudy 6 - - - -
25/12:52am 2.7 SSW 6 8 1029.7 - 0.0 - Partly cloudy 1 - - - -
25/12:43am 2.5 SSW 4 5 1029.7 - 0.0 - Partly cloudy 0.4 - - - -
25/12:36am 2.6 SSW 6 7 1029.7 - 0.0 - Partly cloudy 0.8 - - - -
25/12:30am 2.6 S 6 7 1029.7 - 0.0 - - 4 - - - -
25/12:29am 2.3 S 6 7 1029.7 - 0.0 - - 5 - - - -
25/12:00am 2.5 SW 3 5 1030.1 - 0.0 - Mostly cloudy 9 - - - -
 
Date/Time
EST
Temp

°C
Wind Pressure Rain
since 9am
mm
Weather Cloud Vis
km
Sea
Height
m
Swell
Dir
 
Speed
knots
Gust
knots
hPa Trend Height
m
Period
s
Dir
24/11:30pm 3.5 S 4 5 1029.8 - 0.0 - - 10 - - - -
24/11:00pm 4.0 S 7 8 1029.9 - 0.0 - - 9 - - - -
24/10:30pm 4.2 S 7 7 1029.9 - 0.0 - - 10 - - - -
24/10:00pm 4.1 SSE 6 6 1029.9 - 0.0 - - 10 - - - -
24/09:30pm 4.0 SSE 6 6 1029.9 - 0.0 - - 10 - - - -
24/09:00pm 4.3 S 6 7 1029.8 - 0.0 - Cloudy 10 - - - -
24/08:30pm 4.2 S 5 6 1029.6 - 0.0 - - 10 - - - -
24/08:00pm 4.9 S 5 5 1029.6 - 0.0 - - 10 - - - -
24/07:30pm 5.5 S 5 6 1029.7 - 0.0 - - 10 - - - -
24/07:00pm 6.1 S 5 6 1029.7 - 0.0 - Partly cloudy 10 - - - -
24/06:30pm 7.3 SSE 3 4 1029.8 - 0.0 - Partly cloudy 10 - - - -
24/06:13pm 7.5 SSE 3 5 1029.7 - 0.0 - Cloudy 10 - - - -
24/06:00pm 7.9 S 4 5 1029.7 - 0.0 - Mostly cloudy 10 - - - -
24/05:30pm 8.1 CALM 0 3 1029.5 - 0.0 - Partly cloudy 10 - - - -
24/05:15pm 8.0 WSW 1 4 1029.3 - 0.0 - Partly cloudy 10 - - - -
24/05:00pm 9.4 NNW 3 6 1029.4 - 0.0 - Partly cloudy 10 - - - -
24/04:30pm 10.0 N 3 5 1029.2 - 0.0 - - 10 - - - -
24/04:00pm 10.8 N 5 7 1029.2 - 0.0 - - 10 - - - -
24/03:30pm 10.6 NNW 5 6 1029.4 - 0.0 - - 10 - - - -
24/03:00pm 10.6 NNW 7 9 1029.3 - 0.0 - - 10 - - - -
24/02:30pm 11.0 NNW 6 7 1029.3 - 0.0 - - 10 - - - -
24/02:00pm 11.3 N 5 7 1029.3 - 0.0 - - 10 - - - -
24/01:30pm 11.4 NW 5 7 1029.7 - 0.0 - - 10 - - - -
24/01:00pm 11.5 NW 5 6 1029.9 - 0.0 - - 10 - - - -
24/12:30pm 11.2 NW 5 6 1030.0 - 0.0 - - 10 - - - -
24/12:00pm 11.4 W 3 4 1030.4 - 0.0 - - 10 - - - -
24/11:30am 10.5 SSE 3 5 1030.7 - 0.0 - - 10 - - - -
24/11:00am 9.0 S 5 7 1031.0 - 0.0 - - 10 - - - -
24/10:30am 7.8 S 8 9 1031.1 - 0.0 - - 10 - - - -
24/10:00am 6.4 S 8 9 1031.0 - 0.0 - - 10 - - - -
24/09:30am 4.7 S 8 10 1031.0 - 0.0 - - 10 - - - -
24/09:00am 3.5 S 7 9 1031.0 - 0.0 - - 10 - - - -
24/08:30am 2.6 S 8 10 1030.7 - 0.0 - - 10 - - - -
24/08:00am 2.0 S 9 11 1030.3 - 0.0 - - 10 - - - -
24/07:30am 2.0 S 8 10 1030.2 - 0.0 - - 10 - - - -
24/07:00am 1.6 S 8 10 1030.1 - 0.0 - - 10 - - - -
24/06:30am 2.2 S 8 10 1030.0 - 0.0 - - 10 - - - -
24/06:00am 2.2 S 7 9 1029.8 - 0.0 - - 10 - - - -
24/05:30am 2.6 S 9 11 1029.6 - 0.0 - - 10 - - - -
24/05:00am 2.2 S 9 11 1029.5 - 0.0 - - 10 - - - -
24/04:30am 2.9 S 9 10 1029.3 - 0.0 - - 10 - - - -
24/04:00am 3.1 S 9 11 1029.2 - 0.0 - - 10 - - - -
24/03:30am 3.2 SSE 9 11 1029.2 - 0.0 - - 10 - - - -
24/03:00am 3.6 S 6 9 1029.4 - 0.0 - - 10 - - - -
24/02:30am 3.4 SSE 9 12 1029.4 - 0.0 - - 10 - - - -
24/02:00am 3.0 SSE 9 11 1029.4 - 0.0 - - 10 - - - -
24/01:30am 3.7 SSE 9 11 1029.2 - 0.0 - - 10 - - - -
24/01:00am 4.1 SSE 11 13 1029.3 - 0.0 - - 10 - - - -
24/12:30am 3.4 S 8 10 1029.5 - 0.0 - - 10 - - - -
24/12:00am 3.3 S 9 11 1029.6 - 0.0 - - 10 - - - -
 
Date/Time
EST
Temp

°C
Wind Pressure Rain
since 9am
mm
Weather Cloud Vis
km
Sea
Height
m
Swell
Dir
 
Speed
knots
Gust
knots
hPa Trend Height
m
Period
s
Dir
23/11:30pm 4.2 S 9 10 1029.5 - 0.0 - - 10 - - - -
23/11:00pm 3.6 S 7 9 1029.4 - 0.0 - - 10 - - - -
23/10:30pm 4.7 S 9 11 1029.5 - 0.0 - - 10 - - - -
23/10:00pm 4.6 S 10 11 1029.4 - 0.0 - - 10 - - - -
23/09:30pm 4.6 S 8 9 1029.3 - 0.0 - - 10 - - - -
23/09:00pm 5.6 S 8 9 1029.3 - 0.0 - - 10 - - - -
23/08:30pm 5.6 S 8 9 1029.1 - 0.0 - - 10 - - - -
23/08:00pm 5.2 S 9 10 1028.9 - 0.0 - - 10 - - - -
23/07:30pm 5.6 S 8 9 1028.9 - 0.0 - - 10 - - - -
23/07:00pm 6.1 S 7 8 1028.7 - 0.0 - - 10 - - - -
23/06:30pm 6.3 SSE 8 9 1028.5 - 0.0 - - 10 - - - -
23/06:00pm 6.4 S 6 7 1028.4 - 0.0 - - 10 - - - -
23/05:30pm 7.2 SSE 5 7 1028.3 - 0.0 - - 10 - - - -
23/05:00pm 9.8 SE 3 4 1028.2 - 0.0 - - 10 - - - -
23/04:30pm 10.8 ENE 5 7 1028.2 - 0.0 - - 10 - - - -
23/04:00pm 12.1 NE 7 8 1028.0 - 0.0 - - 10 - - - -
23/03:30pm 13.3 NE 6 8 1028.0 - 0.0 - - 10 - - - -
23/03:00pm 13.2 ENE 7 8 1028.0 - 0.0 - - 10 - - - -
23/02:30pm 12.6 ENE 8 9 1028.1 - 0.0 - - 10 - - - -
23/02:00pm 12.6 ENE 7 9 1028.2 - 0.0 - - 10 - - - -
23/01:30pm 12.2 NE 5 7 1028.4 - 0.0 - - 10 - - - -
23/01:00pm 11.6 NNE 5 7 1028.5 - 0.0 - - 10 - - - -
23/12:30pm 11.3 NNE 4 6 1028.7 - 0.0 - - 10 - - - -
23/12:00pm 10.8 N 4 6 1029.0 - 0.0 - - 10 - - - -
23/11:30am 11.1 N 2 5 1029.5 - 0.0 - - 10 - - - -
23/11:00am 11.1 CALM 0 0 1029.9 - 0.0 - - 10 - - - -
23/10:30am 8.9 W 2 4 1030.0 - 0.0 - - 10 - - - -
23/10:00am 7.7 S 5 6 1030.1 - 0.0 - - 10 - - - -
23/09:30am 6.4 S 6 8 1030.0 - 0.0 - - 10 - - - -
23/09:00am 4.7 SSW 4 6 1029.9 - 0.0 - - 10 - - - -
23/08:30am 2.9 SSE 7 9 1029.7 - 0.0 - - 10 - - - -
23/08:00am 2.5 S 6 8 1029.4 - 0.0 - - 10 - - - -
23/07:30am 1.2 S 6 7 1029.3 - 0.0 - - 10 - - - -
23/07:00am 1.1 SSE 6 7 1029.0 - 0.0 - - 10 - - - -
23/06:30am 1.6 SSE 8 9 1028.6 - 0.0 - - 10 - - - -
23/06:00am 2.2 SSW 5 7 1028.4 - 0.0 - - 10 - - - -
23/05:30am 2.0 S 7 9 1028.3 - 0.0 - - 10 - - - -
23/05:00am 1.7 SSW 4 5 1028.3 - 0.0 - - 10 - - - -
23/04:30am 2.3 SSW 6 7 1028.2 - 0.0 - - 10 - - - -
23/04:00am 1.9 S 3 5 1028.1 - 0.0 - - 10 - - - -
23/03:30am 2.4 S 7 9 1028.1 - 0.0 - - 10 - - - -
23/03:00am 1.8 S 7 8 1028.2 - 0.0 - - 10 - - - -
23/02:30am 2.4 S 7 9 1028.2 - 0.0 - - 10 - - - -
23/02:00am 2.5 S 7 9 1028.1 - 0.0 - - 10 - - - -
23/01:30am 2.8 S 8 10 1028.1 - 0.0 - - 10 - - - -
23/01:00am 2.7 S 7 10 1028.3 - 0.0 - - 10 - - - -
23/12:30am 2.6 S 6 8 1028.3 - 0.0 - - 10 - - - -
23/12:00am 3.1 S 6 8 1028.3 - 0.0 - - 10 - - - -
 
Date/Time
EST
Temp

°C
Wind Pressure Rain
since 9am
mm
Weather Cloud Vis
km
Sea
Height
m
Swell
Dir
 
Speed
knots
Gust
knots
hPa Trend Height
m
Period
s
Dir
22/11:30pm 3.2 SSE 6 8 1028.4 - 0.0 - - 10 - - - -
22/11:00pm 3.2 S 7 9 1028.3 - 0.0 - - 10 - - - -
22/10:30pm 3.5 S 6 8 1028.3 - 0.0 - - 10 - - - -
22/10:00pm 4.3 S 4 7 1028.4 - 0.0 - - 10 - - - -
22/09:30pm 4.9 SSE 5 7 1028.4 - 0.0 - - 10 - - - -
22/09:00pm 3.0 SSE 4 7 1028.4 - 0.0 - Mostly clear 10 - - - -
22/08:30pm 4.5 SSW 5 7 1028.4 - 0.0 - - 10 - - - -
22/08:00pm 4.9 S 7 7 1028.1 - 0.0 - - 10 - - - -
22/07:30pm 4.5 S 6 7 1028.0 - 0.0 - - 10 - - - -
22/07:00pm 4.2 WSW 5 6 1027.8 - 0.0 - - 10 - - - -
22/06:30pm 4.9 S 2 5 1027.8 - 0.0 - - 10 - - - -
22/06:00pm 6.1 CALM 0 0 1027.7 - 0.0 - - 10 - - - -
22/05:30pm 8.1 CALM 0 2 1027.6 - 0.0 - - 10 - - - -
22/05:00pm 9.8 NNW 4 5 1027.5 - 0.0 - - 10 - - - -
22/04:30pm 10.4 NNW 5 6 1027.4 - 0.0 - - 10 - - - -
22/04:00pm 11.2 NW 5 7 1027.5 - 0.0 - - 10 - - - -
22/03:30pm 11.7 NW 6 7 1027.4 - 0.0 - - 10 - - - -
22/03:00pm 11.8 NW 6 7 1027.3 - 0.0 - - 10 - - - -
22/02:30pm 11.7 NNW 7 9 1027.2 - 0.0 - - 10 - - - -
22/02:00pm 11.5 NNW 8 11 1027.4 - 0.0 - - 10 - - - -
22/01:30pm 12.2 SE 1 4 1027.6 - 0.0 - - 10 - - - -
22/01:00pm 11.8 SSE 2 5 1027.9 - 0.0 - - 10 - - - -
22/12:30pm 11.5 S 4 7 1028.3 - 0.0 - - 10 - - - -
22/12:00pm 10.9 S 5 8 1028.4 - 0.0 - - 10 - - - -
22/11:30am 10.7 SE 5 7 1029.0 - 0.0 - - 10 - - - -
22/11:00am 10.2 S 6 8 1029.3 - 0.0 - - 10 - - - -
22/10:30am 10.1 S 8 11 1029.5 - 0.0 - - 10 - - - -
22/10:00am 8.8 S 7 9 1029.2 - 0.0 - - 10 - - - -
22/09:30am 7.6 S 9 11 1029.4 - 0.0 - - 10 - - - -
22/09:00am 6.4 S 7 11 1029.6 - 0.0 - - 10 - - - -
22/08:30am 5.5 SSW 6 7 1029.3 - 0.0 - - 10 - - - -
22/08:00am 4.5 S 6 8 1029.1 - 0.0 - Partly cloudy 10 - - - -
22/07:30am 4.8 S 7 8 1029.4 - 0.0 - Cloudy 10 - - - -
22/07:00am 4.3 S 6 7 1029.1 - 0.0 - Cloudy 10 - - - -
22/06:30am 4.2 S 7 7 1028.8 - 0.0 - - 10 - - - -
22/06:00am 4.6 S 6 7 1028.6 - 0.0 - Partly cloudy 10 - - - -
22/05:30am 4.5 S 6 7 1028.4 - 0.0 - Partly cloudy 10 - - - -
22/05:00am 4.9 S 5 6 1028.3 - 0.0 - Partly cloudy 10 - - - -
22/04:30am 4.8 SSE 6 6 1028.3 - 0.0 - Partly cloudy 10 - - - -
22/04:00am 5.9 SSE 4 5 1028.2 - 0.0 - - 10 - - - -
22/03:30am 6.6 SSE 5 6 1028.4 - 0.0 - Partly cloudy 10 - - - -
22/03:02am 7.3 SSW 4 5 1028.5 - 0.0 - Cloudy 10 - - - -
22/03:00am 7.3 SSW 4 5 1028.6 - 0.0 - Cloudy 10 - - - -
22/02:45am 6.6 WSW 5 6 1028.6 - 0.0 - Cloudy 6 - - - -
22/02:30am 6.8 SSE 3 4 1028.6 - 0.0 - Cloudy 10 - - - -
22/02:00am 7.2 CALM 0 0 1028.6 - 0.0 - Cloudy 10 - - - -

Other Formats:

Comma delimited format used in spreadsheet applications
http://www.bom.gov.au/fwo/IDV60701/IDV60701.95960.axf

JavaScript Object Notation format (JSON) in row-major order
http://www.bom.gov.au/fwo/IDV60701/IDV60701.95960.json